sensor_id;sensor_type;location;lat;lon;timestamp;P1;durP1;ratioP1;P2;durP2;ratioP2
84616;SDS011;74846;51.126;16.944;2023-12-20T00:01:22;8.80;;;5.60;;
84616;SDS011;74846;51.126;16.944;2023-12-20T00:03:50;8.40;;;4.80;;
84616;SDS011;74846;51.126;16.944;2023-12-20T00:06:18;10.20;;;4.90;;
84616;SDS011;74846;51.126;16.944;2023-12-20T00:08:47;8.10;;;4.90;;
84616;SDS011;74846;51.126;16.944;2023-12-20T00:11:15;10.40;;;5.00;;
84616;SDS011;74846;51.126;16.944;2023-12-20T00:13:43;10.80;;;5.40;;
84616;SDS011;74846;51.126;16.944;2023-12-20T00:16:13;9.10;;;5.50;;
84616;SDS011;74846;51.126;16.944;2023-12-20T00:18:41;8.00;;;5.50;;
84616;SDS011;74846;51.126;16.944;2023-12-20T00:21:09;8.30;;;4.50;;
84616;SDS011;74846;51.126;16.944;2023-12-20T00:23:37;9.80;;;5.40;;
84616;SDS011;74846;51.126;16.944;2023-12-20T00:26:05;9.00;;;5.90;;
84616;SDS011;74846;51.126;16.944;2023-12-20T00:28:33;9.40;;;5.30;;
84616;SDS011;74846;51.126;16.944;2023-12-20T00:31:01;10.40;;;5.60;;
84616;SDS011;74846;51.126;16.944;2023-12-20T00:33:29;10.30;;;5.80;;
84616;SDS011;74846;51.126;16.944;2023-12-20T00:35:58;9.40;;;5.30;;
84616;SDS011;74846;51.126;16.944;2023-12-20T00:38:26;12.80;;;5.00;;
84616;SDS011;74846;51.126;16.944;2023-12-20T00:40:54;11.20;;;4.90;;
84616;SDS011;74846;51.126;16.944;2023-12-20T00:43:22;8.70;;;4.60;;
84616;SDS011;74846;51.126;16.944;2023-12-20T00:45:51;7.90;;;4.60;;
84616;SDS011;74846;51.126;16.944;2023-12-20T00:48:19;7.10;;;4.40;;
84616;SDS011;74846;51.126;16.944;2023-12-20T00:50:47;7.50;;;4.30;;
84616;SDS011;74846;51.126;16.944;2023-12-20T00:53:15;8.70;;;5.20;;
84616;SDS011;74846;51.126;16.944;2023-12-20T00:55:43;6.60;;;4.20;;
84616;SDS011;74846;51.126;16.944;2023-12-20T00:58:12;8.40;;;5.00;;
84616;SDS011;74846;51.126;16.944;2023-12-20T01:00:43;7.60;;;4.80;;
84616;SDS011;74846;51.126;16.944;2023-12-20T01:03:11;8.10;;;4.50;;
84616;SDS011;74846;51.126;16.944;2023-12-20T01:05:39;9.80;;;4.80;;
84616;SDS011;74846;51.126;16.944;2023-12-20T01:08:07;7.80;;;4.30;;
84616;SDS011;74846;51.126;16.944;2023-12-20T01:13:59;6.60;;;4.10;;
84616;SDS011;74846;51.126;16.944;2023-12-20T01:16:27;9.00;;;4.90;;
84616;SDS011;74846;51.126;16.944;2023-12-20T01:18:55;9.00;;;4.50;;
84616;SDS011;74846;51.126;16.944;2023-12-20T01:21:23;7.30;;;4.60;;
84616;SDS011;74846;51.126;16.944;2023-12-20T01:23:51;9.00;;;4.90;;
84616;SDS011;74846;51.126;16.944;2023-12-20T01:26:19;7.70;;;4.20;;
84616;SDS011;74846;51.126;16.944;2023-12-20T01:28:47;9.10;;;4.70;;
84616;SDS011;74846;51.126;16.944;2023-12-20T01:31:15;6.70;;;3.60;;
84616;SDS011;74846;51.126;16.944;2023-12-20T01:33:43;5.80;;;4.10;;
84616;SDS011;74846;51.126;16.944;2023-12-20T01:36:11;6.30;;;3.40;;
84616;SDS011;74846;51.126;16.944;2023-12-20T01:38:39;6.30;;;4.10;;
84616;SDS011;74846;51.126;16.944;2023-12-20T01:41:07;7.00;;;3.80;;
84616;SDS011;74846;51.126;16.944;2023-12-20T01:43:35;5.00;;;2.90;;
84616;SDS011;74846;51.126;16.944;2023-12-20T01:46:17;4.60;;;3.10;;
84616;SDS011;74846;51.126;16.944;2023-12-20T01:48:45;4.60;;;3.30;;
84616;SDS011;74846;51.126;16.944;2023-12-20T01:51:13;5.40;;;3.20;;
84616;SDS011;74846;51.126;16.944;2023-12-20T01:53:41;5.40;;;3.30;;
84616;SDS011;74846;51.126;16.944;2023-12-20T01:56:10;6.90;;;3.20;;
84616;SDS011;74846;51.126;16.944;2023-12-20T01:58:41;8.00;;;3.20;;
84616;SDS011;74846;51.126;16.944;2023-12-20T02:01:12;4.70;;;3.30;;
84616;SDS011;74846;51.126;16.944;2023-12-20T02:03:41;5.30;;;2.90;;
84616;SDS011;74846;51.126;16.944;2023-12-20T02:06:10;4.00;;;2.80;;
84616;SDS011;74846;51.126;16.944;2023-12-20T02:08:39;3.70;;;2.40;;
84616;SDS011;74846;51.126;16.944;2023-12-20T02:11:07;3.60;;;2.30;;
84616;SDS011;74846;51.126;16.944;2023-12-20T02:13:35;4.20;;;2.70;;
84616;SDS011;74846;51.126;16.944;2023-12-20T02:16:03;4.20;;;2.60;;
84616;SDS011;74846;51.126;16.944;2023-12-20T02:18:31;3.40;;;2.20;;
84616;SDS011;74846;51.126;16.944;2023-12-20T02:21:00;3.90;;;2.40;;
84616;SDS011;74846;51.126;16.944;2023-12-20T02:23:27;5.00;;;2.70;;
84616;SDS011;74846;51.126;16.944;2023-12-20T02:25:55;4.50;;;2.40;;
84616;SDS011;74846;51.126;16.944;2023-12-20T02:28:23;5.10;;;2.70;;
84616;SDS011;74846;51.126;16.944;2023-12-20T02:30:52;3.40;;;2.20;;
84616;SDS011;74846;51.126;16.944;2023-12-20T02:33:20;2.40;;;1.60;;
84616;SDS011;74846;51.126;16.944;2023-12-20T02:35:48;5.00;;;2.30;;
84616;SDS011;74846;51.126;16.944;2023-12-20T02:38:16;4.60;;;2.50;;
84616;SDS011;74846;51.126;16.944;2023-12-20T02:40:44;3.80;;;2.40;;
84616;SDS011;74846;51.126;16.944;2023-12-20T02:43:16;3.30;;;1.90;;
84616;SDS011;74846;51.126;16.944;2023-12-20T02:45:44;4.50;;;2.20;;
84616;SDS011;74846;51.126;16.944;2023-12-20T02:48:12;3.90;;;2.40;;
84616;SDS011;74846;51.126;16.944;2023-12-20T02:50:40;4.40;;;2.40;;
84616;SDS011;74846;51.126;16.944;2023-12-20T02:53:08;3.40;;;2.30;;
84616;SDS011;74846;51.126;16.944;2023-12-20T02:55:36;3.70;;;2.10;;
84616;SDS011;74846;51.126;16.944;2023-12-20T02:58:04;3.60;;;2.10;;
84616;SDS011;74846;51.126;16.944;2023-12-20T03:00:35;5.10;;;2.10;;
84616;SDS011;74846;51.126;16.944;2023-12-20T03:03:03;4.40;;;2.50;;
84616;SDS011;74846;51.126;16.944;2023-12-20T03:05:31;6.00;;;2.50;;
84616;SDS011;74846;51.126;16.944;2023-12-20T03:08:00;5.60;;;2.40;;
84616;SDS011;74846;51.126;16.944;2023-12-20T03:10:28;4.10;;;2.20;;
84616;SDS011;74846;51.126;16.944;2023-12-20T03:12:56;3.40;;;2.40;;
84616;SDS011;74846;51.126;16.944;2023-12-20T03:15:24;2.80;;;2.10;;
84616;SDS011;74846;51.126;16.944;2023-12-20T03:17:52;5.40;;;2.50;;
84616;SDS011;74846;51.126;16.944;2023-12-20T03:20:20;4.20;;;2.80;;
84616;SDS011;74846;51.126;16.944;2023-12-20T03:22:48;4.60;;;2.50;;
84616;SDS011;74846;51.126;16.944;2023-12-20T03:25:18;5.00;;;2.10;;
84616;SDS011;74846;51.126;16.944;2023-12-20T03:27:46;3.10;;;2.10;;
84616;SDS011;74846;51.126;16.944;2023-12-20T03:30:14;4.20;;;1.90;;
84616;SDS011;74846;51.126;16.944;2023-12-20T03:32:42;2.50;;;1.50;;
84616;SDS011;74846;51.126;16.944;2023-12-20T03:35:11;2.50;;;1.50;;
84616;SDS011;74846;51.126;16.944;2023-12-20T03:37:39;2.20;;;1.20;;
84616;SDS011;74846;51.126;16.944;2023-12-20T03:40:07;2.30;;;1.40;;
84616;SDS011;74846;51.126;16.944;2023-12-20T03:42:35;2.70;;;1.50;;
84616;SDS011;74846;51.126;16.944;2023-12-20T03:45:03;2.50;;;1.10;;
84616;SDS011;74846;51.126;16.944;2023-12-20T03:47:32;2.00;;;1.10;;
84616;SDS011;74846;51.126;16.944;2023-12-20T03:50:00;2.30;;;1.20;;
84616;SDS011;74846;51.126;16.944;2023-12-20T03:52:28;1.90;;;1.10;;
84616;SDS011;74846;51.126;16.944;2023-12-20T03:54:56;1.90;;;1.40;;
84616;SDS011;74846;51.126;16.944;2023-12-20T03:57:24;1.40;;;0.90;;
84616;SDS011;74846;51.126;16.944;2023-12-20T03:59:52;1.50;;;0.90;;
84616;SDS011;74846;51.126;16.944;2023-12-20T04:02:19;1.70;;;1.10;;
84616;SDS011;74846;51.126;16.944;2023-12-20T04:04:47;1.80;;;1.10;;
84616;SDS011;74846;51.126;16.944;2023-12-20T04:07:15;2.30;;;1.10;;
84616;SDS011;74846;51.126;16.944;2023-12-20T04:09:44;2.30;;;1.20;;
84616;SDS011;74846;51.126;16.944;2023-12-20T04:12:12;1.70;;;1.20;;
84616;SDS011;74846;51.126;16.944;2023-12-20T04:14:39;6.70;;;1.10;;
84616;SDS011;74846;51.126;16.944;2023-12-20T04:17:07;2.40;;;1.60;;
84616;SDS011;74846;51.126;16.944;2023-12-20T04:19:35;2.10;;;1.60;;
84616;SDS011;74846;51.126;16.944;2023-12-20T04:22:04;2.60;;;1.30;;
84616;SDS011;74846;51.126;16.944;2023-12-20T04:24:32;1.60;;;1.10;;
84616;SDS011;74846;51.126;16.944;2023-12-20T04:27:00;2.00;;;1.10;;
84616;SDS011;74846;51.126;16.944;2023-12-20T04:29:29;2.00;;;1.20;;
84616;SDS011;74846;51.126;16.944;2023-12-20T04:31:57;2.60;;;1.10;;
84616;SDS011;74846;51.126;16.944;2023-12-20T04:34:25;2.50;;;1.20;;
84616;SDS011;74846;51.126;16.944;2023-12-20T04:36:54;3.80;;;1.60;;
84616;SDS011;74846;51.126;16.944;2023-12-20T04:39:22;4.20;;;2.10;;
84616;SDS011;74846;51.126;16.944;2023-12-20T04:41:50;2.90;;;1.70;;
84616;SDS011;74846;51.126;16.944;2023-12-20T04:44:18;3.10;;;1.30;;
84616;SDS011;74846;51.126;16.944;2023-12-20T04:46:46;3.00;;;1.80;;
84616;SDS011;74846;51.126;16.944;2023-12-20T04:49:14;2.70;;;1.80;;
84616;SDS011;74846;51.126;16.944;2023-12-20T04:51:42;3.50;;;1.70;;
84616;SDS011;74846;51.126;16.944;2023-12-20T04:54:10;3.00;;;1.30;;
84616;SDS011;74846;51.126;16.944;2023-12-20T04:56:38;1.40;;;1.00;;
84616;SDS011;74846;51.126;16.944;2023-12-20T04:59:06;2.20;;;1.20;;
84616;SDS011;74846;51.126;16.944;2023-12-20T05:01:34;1.80;;;0.90;;
84616;SDS011;74846;51.126;16.944;2023-12-20T05:04:02;3.50;;;1.20;;
84616;SDS011;74846;51.126;16.944;2023-12-20T05:06:30;1.20;;;0.90;;
84616;SDS011;74846;51.126;16.944;2023-12-20T05:08:58;2.00;;;1.10;;
84616;SDS011;74846;51.126;16.944;2023-12-20T05:11:26;1.80;;;1.10;;
84616;SDS011;74846;51.126;16.944;2023-12-20T05:13:55;2.50;;;1.40;;
84616;SDS011;74846;51.126;16.944;2023-12-20T05:16:23;3.30;;;1.40;;
84616;SDS011;74846;51.126;16.944;2023-12-20T05:18:51;2.90;;;1.30;;
84616;SDS011;74846;51.126;16.944;2023-12-20T05:21:20;2.90;;;1.40;;
84616;SDS011;74846;51.126;16.944;2023-12-20T05:23:48;2.70;;;1.40;;
84616;SDS011;74846;51.126;16.944;2023-12-20T05:26:17;2.90;;;1.50;;
84616;SDS011;74846;51.126;16.944;2023-12-20T05:28:44;2.70;;;1.40;;
84616;SDS011;74846;51.126;16.944;2023-12-20T05:31:12;2.60;;;1.10;;
84616;SDS011;74846;51.126;16.944;2023-12-20T05:33:40;2.60;;;1.30;;
84616;SDS011;74846;51.126;16.944;2023-12-20T05:36:09;1.80;;;0.90;;
84616;SDS011;74846;51.126;16.944;2023-12-20T05:38:39;1.80;;;1.20;;
84616;SDS011;74846;51.126;16.944;2023-12-20T05:41:07;1.30;;;0.90;;
84616;SDS011;74846;51.126;16.944;2023-12-20T05:43:36;2.70;;;1.20;;
84616;SDS011;74846;51.126;16.944;2023-12-20T05:46:04;2.30;;;1.40;;
84616;SDS011;74846;51.126;16.944;2023-12-20T05:48:32;1.40;;;1.10;;
84616;SDS011;74846;51.126;16.944;2023-12-20T05:51:00;1.20;;;1.10;;
84616;SDS011;74846;51.126;16.944;2023-12-20T05:53:28;1.60;;;1.20;;
84616;SDS011;74846;51.126;16.944;2023-12-20T05:55:56;1.70;;;1.20;;
84616;SDS011;74846;51.126;16.944;2023-12-20T05:58:24;1.90;;;1.20;;
84616;SDS011;74846;51.126;16.944;2023-12-20T06:00:52;4.50;;;1.30;;
84616;SDS011;74846;51.126;16.944;2023-12-20T06:03:20;3.00;;;1.60;;
84616;SDS011;74846;51.126;16.944;2023-12-20T06:05:48;2.20;;;1.30;;
84616;SDS011;74846;51.126;16.944;2023-12-20T06:08:16;1.80;;;1.30;;
84616;SDS011;74846;51.126;16.944;2023-12-20T06:10:44;2.80;;;1.40;;
84616;SDS011;74846;51.126;16.944;2023-12-20T06:13:12;2.40;;;1.40;;
84616;SDS011;74846;51.126;16.944;2023-12-20T06:15:41;1.80;;;1.30;;
84616;SDS011;74846;51.126;16.944;2023-12-20T06:18:09;4.00;;;2.20;;
84616;SDS011;74846;51.126;16.944;2023-12-20T06:20:37;4.10;;;1.70;;
84616;SDS011;74846;51.126;16.944;2023-12-20T06:23:05;3.00;;;1.70;;
84616;SDS011;74846;51.126;16.944;2023-12-20T06:25:33;3.60;;;1.50;;
84616;SDS011;74846;51.126;16.944;2023-12-20T06:28:01;2.20;;;1.30;;
84616;SDS011;74846;51.126;16.944;2023-12-20T06:30:29;3.20;;;1.40;;
84616;SDS011;74846;51.126;16.944;2023-12-20T06:32:57;2.50;;;1.30;;
84616;SDS011;74846;51.126;16.944;2023-12-20T06:35:26;1.40;;;1.00;;
84616;SDS011;74846;51.126;16.944;2023-12-20T06:37:54;1.40;;;1.10;;
84616;SDS011;74846;51.126;16.944;2023-12-20T06:40:22;1.80;;;1.30;;
84616;SDS011;74846;51.126;16.944;2023-12-20T06:42:50;2.70;;;1.20;;
84616;SDS011;74846;51.126;16.944;2023-12-20T06:45:33;1.80;;;1.30;;
84616;SDS011;74846;51.126;16.944;2023-12-20T06:48:01;2.80;;;1.50;;
84616;SDS011;74846;51.126;16.944;2023-12-20T06:50:29;1.80;;;1.20;;
84616;SDS011;74846;51.126;16.944;2023-12-20T06:52:57;1.70;;;1.10;;
84616;SDS011;74846;51.126;16.944;2023-12-20T06:55:25;1.60;;;1.30;;
84616;SDS011;74846;51.126;16.944;2023-12-20T06:57:53;1.90;;;1.20;;
84616;SDS011;74846;51.126;16.944;2023-12-20T07:00:20;1.50;;;1.20;;
84616;SDS011;74846;51.126;16.944;2023-12-20T07:02:48;2.00;;;1.20;;
84616;SDS011;74846;51.126;16.944;2023-12-20T07:05:17;1.60;;;1.20;;
84616;SDS011;74846;51.126;16.944;2023-12-20T07:07:47;1.60;;;1.00;;
84616;SDS011;74846;51.126;16.944;2023-12-20T07:10:17;1.10;;;0.90;;
84616;SDS011;74846;51.126;16.944;2023-12-20T07:12:45;2.50;;;1.40;;
84616;SDS011;74846;51.126;16.944;2023-12-20T07:15:13;2.00;;;1.30;;
84616;SDS011;74846;51.126;16.944;2023-12-20T07:17:41;2.10;;;1.10;;
84616;SDS011;74846;51.126;16.944;2023-12-20T07:20:10;1.20;;;0.80;;
84616;SDS011;74846;51.126;16.944;2023-12-20T07:22:39;1.80;;;1.20;;
84616;SDS011;74846;51.126;16.944;2023-12-20T07:25:07;2.50;;;1.00;;
84616;SDS011;74846;51.126;16.944;2023-12-20T07:27:35;1.40;;;0.80;;
84616;SDS011;74846;51.126;16.944;2023-12-20T07:30:03;1.40;;;1.00;;
84616;SDS011;74846;51.126;16.944;2023-12-20T07:32:32;1.20;;;0.80;;
84616;SDS011;74846;51.126;16.944;2023-12-20T07:35:00;4.30;;;1.10;;
84616;SDS011;74846;51.126;16.944;2023-12-20T07:37:28;0.90;;;0.80;;
84616;SDS011;74846;51.126;16.944;2023-12-20T07:39:56;1.60;;;1.00;;
84616;SDS011;74846;51.126;16.944;2023-12-20T07:42:24;2.10;;;1.20;;
84616;SDS011;74846;51.126;16.944;2023-12-20T07:44:52;2.00;;;0.90;;
84616;SDS011;74846;51.126;16.944;2023-12-20T07:47:20;1.20;;;0.70;;
84616;SDS011;74846;51.126;16.944;2023-12-20T07:49:49;3.40;;;1.00;;
84616;SDS011;74846;51.126;16.944;2023-12-20T07:52:19;2.10;;;1.30;;
84616;SDS011;74846;51.126;16.944;2023-12-20T07:54:47;1.20;;;0.90;;
84616;SDS011;74846;51.126;16.944;2023-12-20T07:57:15;1.60;;;0.80;;
84616;SDS011;74846;51.126;16.944;2023-12-20T07:59:43;1.90;;;0.80;;
84616;SDS011;74846;51.126;16.944;2023-12-20T08:02:12;2.20;;;1.20;;
84616;SDS011;74846;51.126;16.944;2023-12-20T08:04:40;2.00;;;1.10;;
84616;SDS011;74846;51.126;16.944;2023-12-20T08:07:08;2.10;;;1.10;;
84616;SDS011;74846;51.126;16.944;2023-12-20T08:09:36;3.00;;;1.40;;
84616;SDS011;74846;51.126;16.944;2023-12-20T08:12:04;1.50;;;0.90;;
84616;SDS011;74846;51.126;16.944;2023-12-20T08:14:33;1.80;;;1.30;;
84616;SDS011;74846;51.126;16.944;2023-12-20T08:17:01;1.80;;;1.00;;
84616;SDS011;74846;51.126;16.944;2023-12-20T08:19:29;2.00;;;1.30;;
84616;SDS011;74846;51.126;16.944;2023-12-20T08:21:57;2.70;;;1.30;;
84616;SDS011;74846;51.126;16.944;2023-12-20T08:24:25;1.90;;;1.10;;
84616;SDS011;74846;51.126;16.944;2023-12-20T08:26:53;1.90;;;1.20;;
84616;SDS011;74846;51.126;16.944;2023-12-20T08:29:21;2.30;;;1.10;;
84616;SDS011;74846;51.126;16.944;2023-12-20T08:31:52;2.30;;;1.60;;
84616;SDS011;74846;51.126;16.944;2023-12-20T08:34:22;2.50;;;1.20;;
84616;SDS011;74846;51.126;16.944;2023-12-20T08:36:52;3.70;;;1.30;;
84616;SDS011;74846;51.126;16.944;2023-12-20T08:39:20;2.70;;;1.30;;
84616;SDS011;74846;51.126;16.944;2023-12-20T08:41:48;1.40;;;0.90;;
84616;SDS011;74846;51.126;16.944;2023-12-20T08:44:16;2.60;;;1.40;;
84616;SDS011;74846;51.126;16.944;2023-12-20T08:46:45;2.30;;;1.40;;
84616;SDS011;74846;51.126;16.944;2023-12-20T08:49:13;2.40;;;1.30;;
84616;SDS011;74846;51.126;16.944;2023-12-20T08:51:41;3.40;;;1.40;;
84616;SDS011;74846;51.126;16.944;2023-12-20T08:54:10;3.40;;;1.30;;
84616;SDS011;74846;51.126;16.944;2023-12-20T08:56:38;1.70;;;1.10;;
84616;SDS011;74846;51.126;16.944;2023-12-20T08:59:06;2.00;;;1.20;;
84616;SDS011;74846;51.126;16.944;2023-12-20T09:01:34;1.70;;;1.10;;
84616;SDS011;74846;51.126;16.944;2023-12-20T09:04:02;2.00;;;1.20;;
84616;SDS011;74846;51.126;16.944;2023-12-20T09:06:31;2.90;;;1.30;;
84616;SDS011;74846;51.126;16.944;2023-12-20T09:08:59;2.30;;;1.10;;
84616;SDS011;74846;51.126;16.944;2023-12-20T09:11:27;1.50;;;0.90;;
84616;SDS011;74846;51.126;16.944;2023-12-20T09:13:55;1.80;;;1.20;;
84616;SDS011;74846;51.126;16.944;2023-12-20T09:16:23;2.10;;;1.40;;
84616;SDS011;74846;51.126;16.944;2023-12-20T09:18:51;1.80;;;1.30;;
84616;SDS011;74846;51.126;16.944;2023-12-20T09:21:20;2.50;;;1.40;;
84616;SDS011;74846;51.126;16.944;2023-12-20T09:23:48;1.60;;;1.00;;
84616;SDS011;74846;51.126;16.944;2023-12-20T09:26:15;1.60;;;1.00;;
84616;SDS011;74846;51.126;16.944;2023-12-20T09:28:43;1.90;;;1.30;;
84616;SDS011;74846;51.126;16.944;2023-12-20T09:31:11;2.00;;;1.10;;
84616;SDS011;74846;51.126;16.944;2023-12-20T09:33:39;1.00;;;0.90;;
84616;SDS011;74846;51.126;16.944;2023-12-20T09:36:08;1.70;;;0.90;;
84616;SDS011;74846;51.126;16.944;2023-12-20T09:38:36;1.20;;;1.00;;
84616;SDS011;74846;51.126;16.944;2023-12-20T09:41:04;1.90;;;0.90;;
84616;SDS011;74846;51.126;16.944;2023-12-20T09:43:32;1.50;;;1.10;;
84616;SDS011;74846;51.126;16.944;2023-12-20T09:46:06;1.90;;;1.20;;
84616;SDS011;74846;51.126;16.944;2023-12-20T09:48:38;3.10;;;1.40;;
84616;SDS011;74846;51.126;16.944;2023-12-20T09:51:08;1.10;;;0.80;;
84616;SDS011;74846;51.126;16.944;2023-12-20T09:53:36;1.50;;;1.10;;
84616;SDS011;74846;51.126;16.944;2023-12-20T09:56:06;2.00;;;1.30;;
84616;SDS011;74846;51.126;16.944;2023-12-20T09:58:36;1.40;;;1.20;;
84616;SDS011;74846;51.126;16.944;2023-12-20T10:01:06;2.00;;;1.60;;
84616;SDS011;74846;51.126;16.944;2023-12-20T10:03:35;2.20;;;1.10;;
84616;SDS011;74846;51.126;16.944;2023-12-20T10:06:08;2.90;;;1.40;;
84616;SDS011;74846;51.126;16.944;2023-12-20T10:08:37;4.30;;;1.50;;
84616;SDS011;74846;51.126;16.944;2023-12-20T10:11:05;3.80;;;1.40;;
84616;SDS011;74846;51.126;16.944;2023-12-20T10:13:33;2.70;;;1.10;;
84616;SDS011;74846;51.126;16.944;2023-12-20T10:16:02;3.20;;;1.30;;
84616;SDS011;74846;51.126;16.944;2023-12-20T10:18:30;3.70;;;1.60;;
84616;SDS011;74846;51.126;16.944;2023-12-20T10:21:06;2.50;;;1.30;;
84616;SDS011;74846;51.126;16.944;2023-12-20T10:23:38;2.20;;;1.20;;
84616;SDS011;74846;51.126;16.944;2023-12-20T10:26:07;2.00;;;0.90;;
84616;SDS011;74846;51.126;16.944;2023-12-20T10:28:35;3.40;;;1.50;;
84616;SDS011;74846;51.126;16.944;2023-12-20T10:31:05;3.20;;;1.40;;
84616;SDS011;74846;51.126;16.944;2023-12-20T10:33:33;3.70;;;1.70;;
84616;SDS011;74846;51.126;16.944;2023-12-20T10:36:02;3.10;;;1.70;;
84616;SDS011;74846;51.126;16.944;2023-12-20T10:38:31;5.20;;;1.90;;
84616;SDS011;74846;51.126;16.944;2023-12-20T10:40:59;2.90;;;1.50;;
84616;SDS011;74846;51.126;16.944;2023-12-20T10:43:31;2.90;;;1.40;;
84616;SDS011;74846;51.126;16.944;2023-12-20T10:46:02;7.90;;;2.20;;
84616;SDS011;74846;51.126;16.944;2023-12-20T10:48:31;4.50;;;1.80;;
84616;SDS011;74846;51.126;16.944;2023-12-20T10:51:00;5.00;;;2.00;;
84616;SDS011;74846;51.126;16.944;2023-12-20T10:53:30;1.90;;;1.20;;
84616;SDS011;74846;51.126;16.944;2023-12-20T10:55:58;4.30;;;2.00;;
84616;SDS011;74846;51.126;16.944;2023-12-20T10:58:30;4.30;;;1.70;;
84616;SDS011;74846;51.126;16.944;2023-12-20T11:01:01;5.40;;;1.80;;
84616;SDS011;74846;51.126;16.944;2023-12-20T11:03:32;3.10;;;1.60;;
84616;SDS011;74846;51.126;16.944;2023-12-20T11:06:12;3.50;;;1.40;;
84616;SDS011;74846;51.126;16.944;2023-12-20T11:08:47;2.70;;;2.00;;
84616;SDS011;74846;51.126;16.944;2023-12-20T11:14:02;4.80;;;1.60;;
84616;SDS011;74846;51.126;16.944;2023-12-20T11:16:37;7.10;;;2.10;;
84616;SDS011;74846;51.126;16.944;2023-12-20T11:19:18;4.20;;;1.70;;
84616;SDS011;74846;51.126;16.944;2023-12-20T11:21:46;4.30;;;1.70;;
84616;SDS011;74846;51.126;16.944;2023-12-20T11:24:15;3.40;;;1.70;;
84616;SDS011;74846;51.126;16.944;2023-12-20T11:26:47;3.10;;;1.50;;
84616;SDS011;74846;51.126;16.944;2023-12-20T11:29:35;3.60;;;2.10;;
84616;SDS011;74846;51.126;16.944;2023-12-20T11:32:27;3.50;;;1.50;;
84616;SDS011;74846;51.126;16.944;2023-12-20T11:34:53;4.40;;;1.40;;
84616;SDS011;74846;51.126;16.944;2023-12-20T11:37:35;3.50;;;1.30;;
84616;SDS011;74846;51.126;16.944;2023-12-20T11:40:07;6.30;;;2.30;;
84616;SDS011;74846;51.126;16.944;2023-12-20T11:42:39;2.70;;;1.50;;
84616;SDS011;74846;51.126;16.944;2023-12-20T11:45:13;2.80;;;1.40;;
84616;SDS011;74846;51.126;16.944;2023-12-20T11:47:43;3.30;;;1.30;;
84616;SDS011;74846;51.126;16.944;2023-12-20T11:50:15;3.50;;;1.40;;
84616;SDS011;74846;51.126;16.944;2023-12-20T11:52:44;5.70;;;1.60;;
84616;SDS011;74846;51.126;16.944;2023-12-20T11:55:12;3.20;;;1.60;;
84616;SDS011;74846;51.126;16.944;2023-12-20T11:57:41;4.50;;;1.50;;
84616;SDS011;74846;51.126;16.944;2023-12-20T12:00:11;2.10;;;1.30;;
84616;SDS011;74846;51.126;16.944;2023-12-20T12:02:39;3.10;;;1.40;;
84616;SDS011;74846;51.126;16.944;2023-12-20T12:05:07;5.90;;;1.90;;
84616;SDS011;74846;51.126;16.944;2023-12-20T12:07:36;5.40;;;1.50;;
84616;SDS011;74846;51.126;16.944;2023-12-20T12:10:04;7.20;;;2.20;;
84616;SDS011;74846;51.126;16.944;2023-12-20T12:12:32;2.00;;;1.20;;
84616;SDS011;74846;51.126;16.944;2023-12-20T12:15:00;2.90;;;1.60;;
84616;SDS011;74846;51.126;16.944;2023-12-20T12:17:30;3.90;;;1.80;;
84616;SDS011;74846;51.126;16.944;2023-12-20T12:22:32;6.90;;;2.10;;
84616;SDS011;74846;51.126;16.944;2023-12-20T12:25:10;3.10;;;1.80;;
84616;SDS011;74846;51.126;16.944;2023-12-20T12:27:40;3.40;;;1.40;;
84616;SDS011;74846;51.126;16.944;2023-12-20T12:30:09;3.90;;;1.50;;
84616;SDS011;74846;51.126;16.944;2023-12-20T12:32:40;2.80;;;1.60;;
84616;SDS011;74846;51.126;16.944;2023-12-20T12:35:09;3.10;;;1.10;;
84616;SDS011;74846;51.126;16.944;2023-12-20T12:37:38;1.90;;;1.20;;
84616;SDS011;74846;51.126;16.944;2023-12-20T12:40:14;2.80;;;1.50;;
84616;SDS011;74846;51.126;16.944;2023-12-20T12:42:44;3.20;;;1.40;;
84616;SDS011;74846;51.126;16.944;2023-12-20T12:45:12;4.70;;;2.00;;
84616;SDS011;74846;51.126;16.944;2023-12-20T12:47:41;3.90;;;1.90;;
84616;SDS011;74846;51.126;16.944;2023-12-20T12:50:09;4.50;;;1.70;;
84616;SDS011;74846;51.126;16.944;2023-12-20T12:52:37;4.40;;;1.40;;
84616;SDS011;74846;51.126;16.944;2023-12-20T12:55:05;3.90;;;1.40;;
84616;SDS011;74846;51.126;16.944;2023-12-20T12:57:34;2.80;;;1.30;;
84616;SDS011;74846;51.126;16.944;2023-12-20T13:00:02;10.00;;;2.30;;
84616;SDS011;74846;51.126;16.944;2023-12-20T13:02:31;4.50;;;1.60;;
84616;SDS011;74846;51.126;16.944;2023-12-20T13:04:59;4.60;;;1.50;;
84616;SDS011;74846;51.126;16.944;2023-12-20T13:07:28;3.40;;;1.30;;
84616;SDS011;74846;51.126;16.944;2023-12-20T13:09:57;2.60;;;1.30;;
84616;SDS011;74846;51.126;16.944;2023-12-20T13:12:25;5.40;;;1.50;;
84616;SDS011;74846;51.126;16.944;2023-12-20T13:14:53;3.20;;;1.40;;
84616;SDS011;74846;51.126;16.944;2023-12-20T13:17:21;3.30;;;1.40;;
84616;SDS011;74846;51.126;16.944;2023-12-20T13:19:49;3.30;;;1.60;;
84616;SDS011;74846;51.126;16.944;2023-12-20T13:22:18;2.80;;;1.30;;
84616;SDS011;74846;51.126;16.944;2023-12-20T13:24:46;5.10;;;1.80;;
84616;SDS011;74846;51.126;16.944;2023-12-20T13:27:14;8.00;;;1.70;;
84616;SDS011;74846;51.126;16.944;2023-12-20T13:29:42;3.50;;;1.50;;
84616;SDS011;74846;51.126;16.944;2023-12-20T13:32:10;5.10;;;1.60;;
84616;SDS011;74846;51.126;16.944;2023-12-20T13:34:38;1.80;;;1.30;;
84616;SDS011;74846;51.126;16.944;2023-12-20T13:37:06;2.00;;;1.10;;
84616;SDS011;74846;51.126;16.944;2023-12-20T13:39:34;3.00;;;1.70;;
84616;SDS011;74846;51.126;16.944;2023-12-20T13:42:02;3.70;;;1.40;;
84616;SDS011;74846;51.126;16.944;2023-12-20T13:44:31;4.90;;;1.40;;
84616;SDS011;74846;51.126;16.944;2023-12-20T13:46:59;2.90;;;0.70;;
84616;SDS011;74846;51.126;16.944;2023-12-20T13:49:27;5.40;;;1.80;;
84616;SDS011;74846;51.126;16.944;2023-12-20T13:51:55;4.10;;;1.60;;
84616;SDS011;74846;51.126;16.944;2023-12-20T13:54:25;5.70;;;1.80;;
84616;SDS011;74846;51.126;16.944;2023-12-20T13:56:53;4.10;;;2.00;;
84616;SDS011;74846;51.126;16.944;2023-12-20T13:59:38;4.10;;;1.30;;
84616;SDS011;74846;51.126;16.944;2023-12-20T14:02:06;5.60;;;1.90;;
84616;SDS011;74846;51.126;16.944;2023-12-20T14:04:34;3.80;;;1.80;;
84616;SDS011;74846;51.126;16.944;2023-12-20T14:07:10;5.10;;;1.60;;
84616;SDS011;74846;51.126;16.944;2023-12-20T14:09:40;3.40;;;1.80;;
84616;SDS011;74846;51.126;16.944;2023-12-20T14:12:14;3.60;;;1.80;;
84616;SDS011;74846;51.126;16.944;2023-12-20T14:14:42;4.30;;;1.50;;
84616;SDS011;74846;51.126;16.944;2023-12-20T14:17:13;5.40;;;1.40;;
84616;SDS011;74846;51.126;16.944;2023-12-20T14:19:41;1.90;;;1.10;;
84616;SDS011;74846;51.126;16.944;2023-12-20T14:22:09;4.20;;;1.70;;
84616;SDS011;74846;51.126;16.944;2023-12-20T14:24:37;3.00;;;1.70;;
84616;SDS011;74846;51.126;16.944;2023-12-20T14:27:05;4.70;;;1.50;;
84616;SDS011;74846;51.126;16.944;2023-12-20T14:29:33;4.10;;;1.50;;
84616;SDS011;74846;51.126;16.944;2023-12-20T14:32:00;4.00;;;1.80;;
84616;SDS011;74846;51.126;16.944;2023-12-20T14:34:31;4.80;;;1.50;;
84616;SDS011;74846;51.126;16.944;2023-12-20T14:36:59;4.40;;;1.50;;
84616;SDS011;74846;51.126;16.944;2023-12-20T14:39:27;2.80;;;1.50;;
84616;SDS011;74846;51.126;16.944;2023-12-20T14:41:55;2.50;;;1.10;;
84616;SDS011;74846;51.126;16.944;2023-12-20T14:44:24;4.50;;;2.00;;
84616;SDS011;74846;51.126;16.944;2023-12-20T14:46:52;3.40;;;1.80;;
84616;SDS011;74846;51.126;16.944;2023-12-20T14:49:20;4.80;;;2.00;;
84616;SDS011;74846;51.126;16.944;2023-12-20T14:51:48;5.50;;;2.20;;